sensor_id;sensor_type;location;lat;lon;timestamp;P1;durP1;ratioP1;P2;durP2;ratioP2
6665;SDS011;3369;49.906;8.598;2023-03-23T00:01:04;2.23;;;1.10;;
6665;SDS011;3369;49.906;8.598;2023-03-23T00:03:31;1.00;;;0.90;;
6665;SDS011;3369;49.906;8.598;2023-03-23T00:06:00;3.60;;;1.30;;
6665;SDS011;3369;49.906;8.598;2023-03-23T00:08:29;2.50;;;0.97;;
6665;SDS011;3369;49.906;8.598;2023-03-23T00:10:56;1.83;;;1.00;;
6665;SDS011;3369;49.906;8.598;2023-03-23T00:13:24;1.37;;;1.27;;
6665;SDS011;3369;49.906;8.598;2023-03-23T00:15:50;1.33;;;1.23;;
6665;SDS011;3369;49.906;8.598;2023-03-23T00:18:17;0.90;;;0.90;;
6665;SDS011;3369;49.906;8.598;2023-03-23T00:20:53;2.23;;;1.10;;
6665;SDS011;3369;49.906;8.598;2023-03-23T00:23:22;1.40;;;1.20;;
6665;SDS011;3369;49.906;8.598;2023-03-23T00:25:55;3.77;;;1.47;;
6665;SDS011;3369;49.906;8.598;2023-03-23T00:28:25;4.73;;;1.73;;
6665;SDS011;3369;49.906;8.598;2023-03-23T00:30:55;3.27;;;1.40;;
6665;SDS011;3369;49.906;8.598;2023-03-23T00:33:22;1.67;;;1.23;;
6665;SDS011;3369;49.906;8.598;2023-03-23T00:35:49;1.90;;;1.40;;
6665;SDS011;3369;49.906;8.598;2023-03-23T00:38:18;1.40;;;1.30;;
6665;SDS011;3369;49.906;8.598;2023-03-23T00:40:45;1.57;;;1.10;;
6665;SDS011;3369;49.906;8.598;2023-03-23T00:43:13;1.90;;;1.33;;
6665;SDS011;3369;49.906;8.598;2023-03-23T00:45:40;1.40;;;1.30;;
6665;SDS011;3369;49.906;8.598;2023-03-23T00:48:06;1.13;;;1.07;;
6665;SDS011;3369;49.906;8.598;2023-03-23T00:50:34;1.93;;;1.43;;
6665;SDS011;3369;49.906;8.598;2023-03-23T00:52:59;1.83;;;1.20;;
6665;SDS011;3369;49.906;8.598;2023-03-23T00:55:25;1.40;;;1.20;;
6665;SDS011;3369;49.906;8.598;2023-03-23T00:57:51;1.77;;;1.27;;
6665;SDS011;3369;49.906;8.598;2023-03-23T01:00:19;1.70;;;1.60;;
6665;SDS011;3369;49.906;8.598;2023-03-23T01:02:45;2.40;;;1.80;;
6665;SDS011;3369;49.906;8.598;2023-03-23T01:05:11;1.83;;;1.33;;
6665;SDS011;3369;49.906;8.598;2023-03-23T01:07:40;1.90;;;1.30;;
6665;SDS011;3369;49.906;8.598;2023-03-23T01:29:41;4.93;;;1.47;;
6665;SDS011;3369;49.906;8.598;2023-03-23T01:32:06;1.67;;;1.30;;
6665;SDS011;3369;49.906;8.598;2023-03-23T01:34:32;1.93;;;1.40;;
6665;SDS011;3369;49.906;8.598;2023-03-23T01:36:58;3.47;;;1.50;;
6665;SDS011;3369;49.906;8.598;2023-03-23T01:39:24;2.87;;;1.37;;
6665;SDS011;3369;49.906;8.598;2023-03-23T01:41:49;1.60;;;1.43;;
6665;SDS011;3369;49.906;8.598;2023-03-23T01:46:41;2.53;;;1.50;;
6665;SDS011;3369;49.906;8.598;2023-03-23T01:49:11;1.87;;;1.50;;
6665;SDS011;3369;49.906;8.598;2023-03-23T01:51:46;2.97;;;1.40;;
6665;SDS011;3369;49.906;8.598;2023-03-23T01:54:18;2.57;;;1.53;;
6665;SDS011;3369;49.906;8.598;2023-03-23T01:56:52;1.40;;;1.30;;
6665;SDS011;3369;49.906;8.598;2023-03-23T01:59:21;2.07;;;1.70;;
6665;SDS011;3369;49.906;8.598;2023-03-23T02:01:48;1.87;;;1.50;;
6665;SDS011;3369;49.906;8.598;2023-03-23T02:04:17;2.17;;;1.50;;
6665;SDS011;3369;49.906;8.598;2023-03-23T02:06:43;1.57;;;1.37;;
6665;SDS011;3369;49.906;8.598;2023-03-23T02:09:10;1.40;;;1.30;;
6665;SDS011;3369;49.906;8.598;2023-03-23T02:11:38;1.50;;;1.40;;
6665;SDS011;3369;49.906;8.598;2023-03-23T02:14:04;1.53;;;1.43;;
6665;SDS011;3369;49.906;8.598;2023-03-23T02:16:37;1.73;;;1.40;;
6665;SDS011;3369;49.906;8.598;2023-03-23T02:29:19;1.80;;;1.20;;
6665;SDS011;3369;49.906;8.598;2023-03-23T02:34:00;1.87;;;1.40;;
6665;SDS011;3369;49.906;8.598;2023-03-23T02:36:40;1.30;;;1.20;;
6665;SDS011;3369;49.906;8.598;2023-03-23T02:42:10;1.77;;;1.40;;
6665;SDS011;3369;49.906;8.598;2023-03-23T02:44:41;1.93;;;1.50;;
6665;SDS011;3369;49.906;8.598;2023-03-23T02:47:15;1.50;;;1.33;;
6665;SDS011;3369;49.906;8.598;2023-03-23T02:49:45;1.83;;;1.30;;
6665;SDS011;3369;49.906;8.598;2023-03-23T02:52:19;2.47;;;1.40;;
6665;SDS011;3369;49.906;8.598;2023-03-23T02:54:51;1.83;;;1.20;;
6665;SDS011;3369;49.906;8.598;2023-03-23T02:57:19;2.30;;;1.40;;
6665;SDS011;3369;49.906;8.598;2023-03-23T02:59:46;1.67;;;1.13;;
6665;SDS011;3369;49.906;8.598;2023-03-23T03:02:12;2.00;;;1.33;;
6665;SDS011;3369;49.906;8.598;2023-03-23T03:04:45;1.50;;;1.40;;
6665;SDS011;3369;49.906;8.598;2023-03-23T03:10:29;1.47;;;1.23;;
6665;SDS011;3369;49.906;8.598;2023-03-23T03:13:08;4.03;;;1.37;;
6665;SDS011;3369;49.906;8.598;2023-03-23T03:18:15;2.10;;;1.60;;
6665;SDS011;3369;49.906;8.598;2023-03-23T03:20:48;1.83;;;1.30;;
6665;SDS011;3369;49.906;8.598;2023-03-23T03:23:18;2.47;;;1.60;;
6665;SDS011;3369;49.906;8.598;2023-03-23T03:25:46;1.67;;;1.47;;
6665;SDS011;3369;49.906;8.598;2023-03-23T03:28:17;1.60;;;1.40;;
6665;SDS011;3369;49.906;8.598;2023-03-23T03:30:47;1.50;;;1.40;;
6665;SDS011;3369;49.906;8.598;2023-03-23T03:33:19;2.53;;;1.43;;
6665;SDS011;3369;49.906;8.598;2023-03-23T03:35:50;2.77;;;1.50;;
6665;SDS011;3369;49.906;8.598;2023-03-23T03:38:18;1.77;;;1.67;;
6665;SDS011;3369;49.906;8.598;2023-03-23T03:40:43;1.97;;;1.30;;
6665;SDS011;3369;49.906;8.598;2023-03-23T03:43:09;1.40;;;1.30;;
6665;SDS011;3369;49.906;8.598;2023-03-23T03:45:35;2.47;;;1.67;;
6665;SDS011;3369;49.906;8.598;2023-03-23T03:48:01;1.93;;;1.33;;
6665;SDS011;3369;49.906;8.598;2023-03-23T03:50:26;1.30;;;1.20;;
6665;SDS011;3369;49.906;8.598;2023-03-23T03:52:53;1.30;;;1.20;;
6665;SDS011;3369;49.906;8.598;2023-03-23T03:55:19;2.00;;;1.30;;
6665;SDS011;3369;49.906;8.598;2023-03-23T03:57:44;1.77;;;1.43;;
6665;SDS011;3369;49.906;8.598;2023-03-23T04:00:11;1.50;;;1.40;;
6665;SDS011;3369;49.906;8.598;2023-03-23T04:02:42;1.73;;;1.30;;
6665;SDS011;3369;49.906;8.598;2023-03-23T04:05:16;1.27;;;1.27;;
6665;SDS011;3369;49.906;8.598;2023-03-23T04:07:43;3.47;;;1.60;;
6665;SDS011;3369;49.906;8.598;2023-03-23T04:10:11;1.67;;;1.40;;
6665;SDS011;3369;49.906;8.598;2023-03-23T04:12:38;2.87;;;1.13;;
6665;SDS011;3369;49.906;8.598;2023-03-23T04:15:07;1.67;;;1.43;;
6665;SDS011;3369;49.906;8.598;2023-03-23T04:17:33;1.93;;;1.40;;
6665;SDS011;3369;49.906;8.598;2023-03-23T04:19:59;2.30;;;1.40;;
6665;SDS011;3369;49.906;8.598;2023-03-23T04:22:26;1.50;;;1.33;;
6665;SDS011;3369;49.906;8.598;2023-03-23T04:25:04;1.40;;;1.30;;
6665;SDS011;3369;49.906;8.598;2023-03-23T04:27:31;1.30;;;1.20;;
6665;SDS011;3369;49.906;8.598;2023-03-23T04:29:57;1.50;;;1.40;;
6665;SDS011;3369;49.906;8.598;2023-03-23T04:32:26;1.40;;;1.30;;
6665;SDS011;3369;49.906;8.598;2023-03-23T04:34:54;2.73;;;1.27;;
6665;SDS011;3369;49.906;8.598;2023-03-23T04:37:22;1.73;;;1.30;;
6665;SDS011;3369;49.906;8.598;2023-03-23T04:39:54;1.63;;;1.40;;
6665;SDS011;3369;49.906;8.598;2023-03-23T04:42:28;1.40;;;1.30;;
6665;SDS011;3369;49.906;8.598;2023-03-23T04:44:56;1.80;;;1.40;;
6665;SDS011;3369;49.906;8.598;2023-03-23T04:47:22;1.50;;;1.40;;
6665;SDS011;3369;49.906;8.598;2023-03-23T04:49:49;1.43;;;1.33;;
6665;SDS011;3369;49.906;8.598;2023-03-23T04:52:16;1.37;;;1.20;;
6665;SDS011;3369;49.906;8.598;2023-03-23T04:54:42;1.57;;;1.40;;
6665;SDS011;3369;49.906;8.598;2023-03-23T04:57:08;1.83;;;1.70;;
6665;SDS011;3369;49.906;8.598;2023-03-23T04:59:33;1.60;;;1.27;;
6665;SDS011;3369;49.906;8.598;2023-03-23T05:01:59;1.47;;;1.37;;
6665;SDS011;3369;49.906;8.598;2023-03-23T05:04:25;1.40;;;1.30;;
6665;SDS011;3369;49.906;8.598;2023-03-23T05:06:51;2.47;;;1.30;;
6665;SDS011;3369;49.906;8.598;2023-03-23T05:09:17;2.17;;;1.10;;
6665;SDS011;3369;49.906;8.598;2023-03-23T05:11:43;2.10;;;1.20;;
6665;SDS011;3369;49.906;8.598;2023-03-23T05:14:09;1.03;;;1.03;;
6665;SDS011;3369;49.906;8.598;2023-03-23T05:16:35;1.53;;;1.20;;
6665;SDS011;3369;49.906;8.598;2023-03-23T05:19:02;1.20;;;1.10;;
6665;SDS011;3369;49.906;8.598;2023-03-23T05:21:30;1.30;;;1.20;;
6665;SDS011;3369;49.906;8.598;2023-03-23T05:23:56;2.67;;;1.30;;
6665;SDS011;3369;49.906;8.598;2023-03-23T05:26:22;1.33;;;1.20;;
6665;SDS011;3369;49.906;8.598;2023-03-23T05:28:53;1.33;;;1.23;;
6665;SDS011;3369;49.906;8.598;2023-03-23T05:31:20;1.40;;;1.10;;
6665;SDS011;3369;49.906;8.598;2023-03-23T05:33:48;2.20;;;1.27;;
6665;SDS011;3369;49.906;8.598;2023-03-23T05:36:13;1.40;;;1.30;;
6665;SDS011;3369;49.906;8.598;2023-03-23T05:38:39;1.30;;;1.00;;
6665;SDS011;3369;49.906;8.598;2023-03-23T05:41:10;3.30;;;1.57;;
6665;SDS011;3369;49.906;8.598;2023-03-23T05:43:36;1.30;;;1.20;;
6665;SDS011;3369;49.906;8.598;2023-03-23T05:46:02;1.50;;;1.37;;
6665;SDS011;3369;49.906;8.598;2023-03-23T05:48:27;1.50;;;1.40;;
6665;SDS011;3369;49.906;8.598;2023-03-23T05:50:53;2.13;;;1.30;;
6665;SDS011;3369;49.906;8.598;2023-03-23T05:53:19;1.30;;;1.20;;
6665;SDS011;3369;49.906;8.598;2023-03-23T05:55:45;1.20;;;1.10;;
6665;SDS011;3369;49.906;8.598;2023-03-23T05:58:11;1.00;;;0.90;;
6665;SDS011;3369;49.906;8.598;2023-03-23T06:00:37;1.40;;;1.20;;
6665;SDS011;3369;49.906;8.598;2023-03-23T06:03:04;2.23;;;1.30;;
6665;SDS011;3369;49.906;8.598;2023-03-23T06:05:29;1.60;;;1.30;;
6665;SDS011;3369;49.906;8.598;2023-03-23T06:07:55;1.90;;;1.40;;
6665;SDS011;3369;49.906;8.598;2023-03-23T06:10:20;1.97;;;1.47;;
6665;SDS011;3369;49.906;8.598;2023-03-23T06:12:47;2.57;;;1.10;;
6665;SDS011;3369;49.906;8.598;2023-03-23T06:15:15;1.40;;;1.27;;
6665;SDS011;3369;49.906;8.598;2023-03-23T06:17:41;1.70;;;1.40;;
6665;SDS011;3369;49.906;8.598;2023-03-23T06:20:07;2.30;;;1.90;;
6665;SDS011;3369;49.906;8.598;2023-03-23T06:22:34;1.87;;;1.27;;
6665;SDS011;3369;49.906;8.598;2023-03-23T06:25:07;2.43;;;1.43;;
6665;SDS011;3369;49.906;8.598;2023-03-23T06:27:36;1.40;;;1.30;;
6665;SDS011;3369;49.906;8.598;2023-03-23T06:30:03;1.30;;;1.10;;
6665;SDS011;3369;49.906;8.598;2023-03-23T06:32:30;1.30;;;1.20;;
6665;SDS011;3369;49.906;8.598;2023-03-23T06:34:57;2.03;;;1.30;;
6665;SDS011;3369;49.906;8.598;2023-03-23T06:37:22;1.40;;;1.30;;
6665;SDS011;3369;49.906;8.598;2023-03-23T06:39:50;1.30;;;1.20;;
6665;SDS011;3369;49.906;8.598;2023-03-23T06:42:16;1.40;;;1.30;;
6665;SDS011;3369;49.906;8.598;2023-03-23T06:44:43;1.03;;;1.03;;
6665;SDS011;3369;49.906;8.598;2023-03-23T06:47:08;1.33;;;1.23;;
6665;SDS011;3369;49.906;8.598;2023-03-23T06:49:34;1.70;;;1.27;;
6665;SDS011;3369;49.906;8.598;2023-03-23T07:13:05;1.50;;;1.40;;
6665;SDS011;3369;49.906;8.598;2023-03-23T07:15:31;3.53;;;1.40;;
6665;SDS011;3369;49.906;8.598;2023-03-23T07:17:57;2.50;;;2.30;;
6665;SDS011;3369;49.906;8.598;2023-03-23T07:20:23;10.87;;;5.40;;
6665;SDS011;3369;49.906;8.598;2023-03-23T07:22:48;15.67;;;8.00;;
6665;SDS011;3369;49.906;8.598;2023-03-23T07:25:15;9.20;;;4.70;;
6665;SDS011;3369;49.906;8.598;2023-03-23T07:27:41;8.87;;;5.60;;
6665;SDS011;3369;49.906;8.598;2023-03-23T07:30:07;15.80;;;7.27;;
6665;SDS011;3369;49.906;8.598;2023-03-23T07:32:33;7.80;;;4.57;;
6665;SDS011;3369;49.906;8.598;2023-03-23T07:34:59;14.80;;;7.47;;
6665;SDS011;3369;49.906;8.598;2023-03-23T07:37:25;5.97;;;3.63;;
6665;SDS011;3369;49.906;8.598;2023-03-23T07:39:50;3.03;;;2.73;;
6665;SDS011;3369;49.906;8.598;2023-03-23T07:42:16;2.97;;;1.80;;
6665;SDS011;3369;49.906;8.598;2023-03-23T07:44:42;1.87;;;1.40;;
6665;SDS011;3369;49.906;8.598;2023-03-23T07:47:08;1.63;;;1.33;;
6665;SDS011;3369;49.906;8.598;2023-03-23T07:49:33;2.00;;;1.57;;
6665;SDS011;3369;49.906;8.598;2023-03-23T07:51:59;1.53;;;1.27;;
6665;SDS011;3369;49.906;8.598;2023-03-23T07:54:29;1.30;;;1.30;;
6665;SDS011;3369;49.906;8.598;2023-03-23T07:56:55;1.93;;;1.60;;
6665;SDS011;3369;49.906;8.598;2023-03-23T07:59:20;1.73;;;1.60;;
6665;SDS011;3369;49.906;8.598;2023-03-23T08:01:46;1.60;;;1.50;;
6665;SDS011;3369;49.906;8.598;2023-03-23T08:04:12;1.63;;;1.53;;
6665;SDS011;3369;49.906;8.598;2023-03-23T08:06:39;1.97;;;1.83;;
6665;SDS011;3369;49.906;8.598;2023-03-23T08:09:05;1.40;;;1.30;;
6665;SDS011;3369;49.906;8.598;2023-03-23T08:11:34;1.80;;;1.70;;
6665;SDS011;3369;49.906;8.598;2023-03-23T08:14:00;3.27;;;1.80;;
6665;SDS011;3369;49.906;8.598;2023-03-23T08:16:26;2.37;;;1.90;;
6665;SDS011;3369;49.906;8.598;2023-03-23T08:18:52;3.60;;;1.80;;
6665;SDS011;3369;49.906;8.598;2023-03-23T08:21:18;1.37;;;1.27;;
6665;SDS011;3369;49.906;8.598;2023-03-23T08:23:44;1.47;;;1.30;;
6665;SDS011;3369;49.906;8.598;2023-03-23T08:26:10;1.60;;;1.50;;
6665;SDS011;3369;49.906;8.598;2023-03-23T08:28:36;3.37;;;1.50;;
6665;SDS011;3369;49.906;8.598;2023-03-23T08:31:06;2.03;;;1.50;;
6665;SDS011;3369;49.906;8.598;2023-03-23T08:33:35;2.03;;;1.23;;
6665;SDS011;3369;49.906;8.598;2023-03-23T08:36:01;1.87;;;1.30;;
6665;SDS011;3369;49.906;8.598;2023-03-23T08:38:28;3.00;;;1.43;;
6665;SDS011;3369;49.906;8.598;2023-03-23T08:40:58;3.63;;;1.50;;
6665;SDS011;3369;49.906;8.598;2023-03-23T08:43:25;1.60;;;1.50;;
6665;SDS011;3369;49.906;8.598;2023-03-23T08:45:52;1.30;;;1.20;;
6665;SDS011;3369;49.906;8.598;2023-03-23T08:48:18;3.03;;;1.17;;
6665;SDS011;3369;49.906;8.598;2023-03-23T08:50:45;1.33;;;1.23;;
6665;SDS011;3369;49.906;8.598;2023-03-23T08:53:11;2.07;;;1.20;;
6665;SDS011;3369;49.906;8.598;2023-03-23T08:55:37;3.87;;;1.60;;
6665;SDS011;3369;49.906;8.598;2023-03-23T08:58:03;3.20;;;1.40;;
6665;SDS011;3369;49.906;8.598;2023-03-23T09:00:29;1.43;;;1.33;;
6665;SDS011;3369;49.906;8.598;2023-03-23T09:02:55;3.13;;;1.40;;
6665;SDS011;3369;49.906;8.598;2023-03-23T09:05:22;2.50;;;1.67;;
6665;SDS011;3369;49.906;8.598;2023-03-23T09:07:50;2.20;;;1.30;;
6665;SDS011;3369;49.906;8.598;2023-03-23T09:10:17;1.10;;;1.10;;
6665;SDS011;3369;49.906;8.598;2023-03-23T09:12:43;1.37;;;1.23;;
6665;SDS011;3369;49.906;8.598;2023-03-23T09:15:11;1.13;;;1.10;;
6665;SDS011;3369;49.906;8.598;2023-03-23T09:17:41;1.40;;;1.30;;
6665;SDS011;3369;49.906;8.598;2023-03-23T09:20:09;3.17;;;1.40;;
6665;SDS011;3369;49.906;8.598;2023-03-23T09:22:38;1.10;;;1.10;;
6665;SDS011;3369;49.906;8.598;2023-03-23T09:25:06;2.43;;;1.10;;
6665;SDS011;3369;49.906;8.598;2023-03-23T09:27:32;1.50;;;1.13;;
6665;SDS011;3369;49.906;8.598;2023-03-23T09:29:58;2.03;;;1.33;;
6665;SDS011;3369;49.906;8.598;2023-03-23T09:32:26;3.20;;;1.40;;
6665;SDS011;3369;49.906;8.598;2023-03-23T09:34:52;1.33;;;1.23;;
6665;SDS011;3369;49.906;8.598;2023-03-23T09:37:20;3.13;;;1.33;;
6665;SDS011;3369;49.906;8.598;2023-03-23T09:39:46;1.53;;;1.43;;
6665;SDS011;3369;49.906;8.598;2023-03-23T09:45:26;1.60;;;1.40;;
6665;SDS011;3369;49.906;8.598;2023-03-23T09:48:01;1.60;;;1.50;;
6665;SDS011;3369;49.906;8.598;2023-03-23T09:50:48;2.10;;;1.53;;
6665;SDS011;3369;49.906;8.598;2023-03-23T09:53:23;1.43;;;1.20;;
6665;SDS011;3369;49.906;8.598;2023-03-23T09:55:53;1.37;;;1.20;;
6665;SDS011;3369;49.906;8.598;2023-03-23T09:58:27;2.50;;;1.30;;
6665;SDS011;3369;49.906;8.598;2023-03-23T10:01:02;1.67;;;1.20;;
6665;SDS011;3369;49.906;8.598;2023-03-23T10:03:44;2.27;;;1.40;;
6665;SDS011;3369;49.906;8.598;2023-03-23T10:06:15;1.27;;;1.17;;
6665;SDS011;3369;49.906;8.598;2023-03-23T10:08:49;1.13;;;1.03;;
6665;SDS011;3369;49.906;8.598;2023-03-23T10:11:26;1.53;;;1.43;;
6665;SDS011;3369;49.906;8.598;2023-03-23T10:16:42;1.47;;;1.10;;
6665;SDS011;3369;49.906;8.598;2023-03-23T10:21:59;1.63;;;1.20;;
6665;SDS011;3369;49.906;8.598;2023-03-23T10:24:35;1.30;;;1.20;;
6665;SDS011;3369;49.906;8.598;2023-03-23T10:27:33;1.40;;;1.30;;
6665;SDS011;3369;49.906;8.598;2023-03-23T10:30:27;1.80;;;1.17;;
6665;SDS011;3369;49.906;8.598;2023-03-23T10:33:01;1.87;;;1.30;;
6665;SDS011;3369;49.906;8.598;2023-03-23T10:35:41;1.23;;;1.13;;
6665;SDS011;3369;49.906;8.598;2023-03-23T10:38:36;1.23;;;1.13;;
6665;SDS011;3369;49.906;8.598;2023-03-23T10:41:06;2.83;;;1.30;;
6665;SDS011;3369;49.906;8.598;2023-03-23T10:43:40;1.37;;;0.97;;
6665;SDS011;3369;49.906;8.598;2023-03-23T10:48:56;1.43;;;1.00;;
6665;SDS011;3369;49.906;8.598;2023-03-23T10:51:27;1.43;;;1.00;;
6665;SDS011;3369;49.906;8.598;2023-03-23T10:53:58;1.33;;;0.90;;
6665;SDS011;3369;49.906;8.598;2023-03-23T10:57:00;1.10;;;1.00;;
6665;SDS011;3369;49.906;8.598;2023-03-23T10:59:20;1.13;;;1.03;;
6665;SDS011;3369;49.906;8.598;2023-03-23T11:01:52;0.97;;;0.93;;
6665;SDS011;3369;49.906;8.598;2023-03-23T11:04:20;2.60;;;1.00;;
6665;SDS011;3369;49.906;8.598;2023-03-23T11:06:49;1.00;;;1.00;;
6665;SDS011;3369;49.906;8.598;2023-03-23T11:09:18;1.43;;;0.93;;
6665;SDS011;3369;49.906;8.598;2023-03-23T11:11:49;0.97;;;0.90;;
6665;SDS011;3369;49.906;8.598;2023-03-23T11:14:27;1.70;;;1.60;;
6665;SDS011;3369;49.906;8.598;2023-03-23T11:16:56;0.97;;;0.97;;
6665;SDS011;3369;49.906;8.598;2023-03-23T11:19:27;1.13;;;0.80;;
6665;SDS011;3369;49.906;8.598;2023-03-23T11:24:43;2.67;;;1.17;;
6665;SDS011;3369;49.906;8.598;2023-03-23T11:27:11;0.90;;;0.90;;
6665;SDS011;3369;49.906;8.598;2023-03-23T11:29:54;2.00;;;0.90;;
6665;SDS011;3369;49.906;8.598;2023-03-23T11:32:33;1.00;;;1.00;;
6665;SDS011;3369;49.906;8.598;2023-03-23T11:35:02;1.80;;;0.87;;
6665;SDS011;3369;49.906;8.598;2023-03-23T11:42:43;1.40;;;1.30;;
6665;SDS011;3369;49.906;8.598;2023-03-23T11:47:42;2.27;;;1.03;;
6665;SDS011;3369;49.906;8.598;2023-03-23T11:50:29;1.03;;;1.03;;
6665;SDS011;3369;49.906;8.598;2023-03-23T11:53:01;1.00;;;1.00;;
6665;SDS011;3369;49.906;8.598;2023-03-23T11:55:50;1.67;;;1.23;;
6665;SDS011;3369;49.906;8.598;2023-03-23T11:58:24;1.07;;;0.97;;
6665;SDS011;3369;49.906;8.598;2023-03-23T12:01:09;2.43;;;0.90;;
6665;SDS011;3369;49.906;8.598;2023-03-23T12:21:20;0.87;;;0.83;;
6665;SDS011;3369;49.906;8.598;2023-03-23T12:34:41;1.90;;;0.80;;
6665;SDS011;3369;49.906;8.598;2023-03-23T12:46:00;1.03;;;0.73;;
6665;SDS011;3369;49.906;8.598;2023-03-23T12:48:32;0.70;;;0.70;;
6665;SDS011;3369;49.906;8.598;2023-03-23T12:51:04;1.70;;;0.80;;
6665;SDS011;3369;49.906;8.598;2023-03-23T12:59:19;0.80;;;0.80;;
6665;SDS011;3369;49.906;8.598;2023-03-23T13:04:50;1.03;;;1.00;;
6665;SDS011;3369;49.906;8.598;2023-03-23T13:07:32;0.83;;;0.83;;
6665;SDS011;3369;49.906;8.598;2023-03-23T13:29:54;1.00;;;1.00;;
6665;SDS011;3369;49.906;8.598;2023-03-23T13:32:34;1.07;;;0.97;;
6665;SDS011;3369;49.906;8.598;2023-03-23T13:35:03;0.80;;;0.80;;
6665;SDS011;3369;49.906;8.598;2023-03-23T13:37:40;1.63;;;1.00;;
6665;SDS011;3369;49.906;8.598;2023-03-23T13:42:47;0.80;;;0.80;;
6665;SDS011;3369;49.906;8.598;2023-03-23T13:50:43;0.77;;;0.77;;
6665;SDS011;3369;49.906;8.598;2023-03-23T13:53:20;0.67;;;0.67;;
6665;SDS011;3369;49.906;8.598;2023-03-23T13:56:16;0.60;;;0.60;;
6665;SDS011;3369;49.906;8.598;2023-03-23T13:58:52;0.80;;;0.80;;
6665;SDS011;3369;49.906;8.598;2023-03-23T14:01:32;0.93;;;0.90;;
6665;SDS011;3369;49.906;8.598;2023-03-23T14:04:04;1.53;;;1.03;;
6665;SDS011;3369;49.906;8.598;2023-03-23T14:06:35;2.07;;;0.80;;
6665;SDS011;3369;49.906;8.598;2023-03-23T14:09:23;0.80;;;0.73;;
6665;SDS011;3369;49.906;8.598;2023-03-23T14:11:58;0.67;;;0.60;;
6665;SDS011;3369;49.906;8.598;2023-03-23T14:14:42;1.03;;;0.80;;
6665;SDS011;3369;49.906;8.598;2023-03-23T14:17:19;0.80;;;0.80;;
6665;SDS011;3369;49.906;8.598;2023-03-23T14:19:53;1.43;;;0.87;;
6665;SDS011;3369;49.906;8.598;2023-03-23T14:22:27;0.73;;;0.73;;
6665;SDS011;3369;49.906;8.598;2023-03-23T14:25:01;0.70;;;0.70;;
6665;SDS011;3369;49.906;8.598;2023-03-23T14:27:35;4.00;;;0.90;;
6665;SDS011;3369;49.906;8.598;2023-03-23T14:30:03;0.73;;;0.70;;
6665;SDS011;3369;49.906;8.598;2023-03-23T14:32:40;2.40;;;0.90;;
6665;SDS011;3369;49.906;8.598;2023-03-23T14:35:13;0.83;;;0.70;;
6665;SDS011;3369;49.906;8.598;2023-03-23T14:37:40;1.87;;;0.50;;
6665;SDS011;3369;49.906;8.598;2023-03-23T14:40:08;1.13;;;0.73;;
6665;SDS011;3369;49.906;8.598;2023-03-23T14:42:40;0.80;;;0.80;;
6665;SDS011;3369;49.906;8.598;2023-03-23T14:45:10;1.13;;;1.00;;
6665;SDS011;3369;49.906;8.598;2023-03-23T14:47:42;0.70;;;0.70;;
6665;SDS011;3369;49.906;8.598;2023-03-23T14:50:29;1.00;;;0.97;;
6665;SDS011;3369;49.906;8.598;2023-03-23T14:55:50;0.70;;;0.70;;
6665;SDS011;3369;49.906;8.598;2023-03-23T14:58:18;1.40;;;0.80;;
6665;SDS011;3369;49.906;8.598;2023-03-23T15:03:24;1.07;;;0.80;;
6665;SDS011;3369;49.906;8.598;2023-03-23T15:05:55;1.23;;;1.10;;
6665;SDS011;3369;49.906;8.598;2023-03-23T15:08:32;0.67;;;0.67;;
6665;SDS011;3369;49.906;8.598;2023-03-23T15:11:07;0.80;;;0.80;;
6665;SDS011;3369;49.906;8.598;2023-03-23T15:13:41;0.70;;;0.70;;
6665;SDS011;3369;49.906;8.598;2023-03-23T15:16:16;1.60;;;0.70;;
6665;SDS011;3369;49.906;8.598;2023-03-23T15:19:03;0.83;;;0.83;;
6665;SDS011;3369;49.906;8.598;2023-03-23T15:21:35;0.80;;;0.80;;
6665;SDS011;3369;49.906;8.598;2023-03-23T15:27:12;0.83;;;0.83;;
6665;SDS011;3369;49.906;8.598;2023-03-23T15:29:48;0.93;;;0.80;;
6665;SDS011;3369;49.906;8.598;2023-03-23T15:32:22;0.80;;;0.80;;
6665;SDS011;3369;49.906;8.598;2023-03-23T15:34:50;0.80;;;0.80;;
6665;SDS011;3369;49.906;8.598;2023-03-23T15:37:35;0.80;;;0.80;;
6665;SDS011;3369;49.906;8.598;2023-03-23T15:40:21;1.17;;;0.80;;
6665;SDS011;3369;49.906;8.598;2023-03-23T15:42:48;0.80;;;0.80;;
6665;SDS011;3369;49.906;8.598;2023-03-23T15:47:51;0.80;;;0.80;;
6665;SDS011;3369;49.906;8.598;2023-03-23T15:52:53;1.03;;;0.90;;
6665;SDS011;3369;49.906;8.598;2023-03-23T15:55:28;0.77;;;0.77;;
6665;SDS011;3369;49.906;8.598;2023-03-23T15:58:00;1.97;;;0.93;;
6665;SDS011;3369;49.906;8.598;2023-03-23T16:00:35;1.23;;;0.93;;
6665;SDS011;3369;49.906;8.598;2023-03-23T16:03:06;2.57;;;0.90;;
6665;SDS011;3369;49.906;8.598;2023-03-23T16:05:36;1.33;;;0.83;;
6665;SDS011;3369;49.906;8.598;2023-03-23T16:08:02;1.10;;;1.00;;
6665;SDS011;3369;49.906;8.598;2023-03-23T16:10:28;0.73;;;0.70;;
6665;SDS011;3369;49.906;8.598;2023-03-23T16:12:54;1.50;;;0.90;;
6665;SDS011;3369;49.906;8.598;2023-03-23T16:15:20;1.13;;;0.80;;
6665;SDS011;3369;49.906;8.598;2023-03-23T16:17:46;1.23;;;1.10;;
6665;SDS011;3369;49.906;8.598;2023-03-23T16:20:13;0.67;;;0.67;;
6665;SDS011;3369;49.906;8.598;2023-03-23T16:22:43;1.43;;;1.00;;
6665;SDS011;3369;49.906;8.598;2023-03-23T16:25:10;0.80;;;0.80;;
6665;SDS011;3369;49.906;8.598;2023-03-23T16:27:37;1.17;;;1.07;;
6665;SDS011;3369;49.906;8.598;2023-03-23T16:30:17;0.70;;;0.70;;
6665;SDS011;3369;49.906;8.598;2023-03-23T16:32:43;0.90;;;0.90;;
6665;SDS011;3369;49.906;8.598;2023-03-23T16:35:10;1.90;;;1.10;;
6665;SDS011;3369;49.906;8.598;2023-03-23T16:37:37;0.90;;;0.90;;
6665;SDS011;3369;49.906;8.598;2023-03-23T16:40:04;1.60;;;1.07;;
6665;SDS011;3369;49.906;8.598;2023-03-23T16:42:31;1.23;;;1.10;;
6665;SDS011;3369;49.906;8.598;2023-03-23T16:44:57;2.00;;;0.90;;
6665;SDS011;3369;49.906;8.598;2023-03-23T16:47:23;1.53;;;1.00;;
6665;SDS011;3369;49.906;8.598;2023-03-23T16:49:50;1.00;;;0.90;;
6665;SDS011;3369;49.906;8.598;2023-03-23T16:52:16;2.30;;;0.93;;
6665;SDS011;3369;49.906;8.598;2023-03-23T16:54:43;1.20;;;1.10;;
6665;SDS011;3369;49.906;8.598;2023-03-23T16:57:09;0.90;;;0.90;;
6665;SDS011;3369;49.906;8.598;2023-03-23T16:59:35;1.17;;;1.00;;
6665;SDS011;3369;49.906;8.598;2023-03-23T17:02:00;1.10;;;1.00;;
6665;SDS011;3369;49.906;8.598;2023-03-23T17:04:31;1.03;;;1.00;;
6665;SDS011;3369;49.906;8.598;2023-03-23T17:06:57;1.13;;;1.13;;
6665;SDS011;3369;49.906;8.598;2023-03-23T17:09:24;1.23;;;0.90;;
6665;SDS011;3369;49.906;8.598;2023-03-23T17:11:51;1.10;;;0.90;;
6665;SDS011;3369;49.906;8.598;2023-03-23T17:14:18;0.90;;;0.90;;
6665;SDS011;3369;49.906;8.598;2023-03-23T17:16:44;1.50;;;1.00;;
6665;SDS011;3369;49.906;8.598;2023-03-23T17:19:10;1.47;;;1.10;;
6665;SDS011;3369;49.906;8.598;2023-03-23T17:21:38;1.93;;;1.63;;
6665;SDS011;3369;49.906;8.598;2023-03-23T17:24:04;1.10;;;1.00;;
6665;SDS011;3369;49.906;8.598;2023-03-23T17:26:31;1.00;;;1.00;;
6665;SDS011;3369;49.906;8.598;2023-03-23T17:28:56;1.20;;;1.10;;
6665;SDS011;3369;49.906;8.598;2023-03-23T17:31:22;1.10;;;1.10;;
6665;SDS011;3369;49.906;8.598;2023-03-23T17:33:48;2.37;;;1.10;;
6665;SDS011;3369;49.906;8.598;2023-03-23T17:36:15;1.23;;;1.17;;
6665;SDS011;3369;49.906;8.598;2023-03-23T17:38:41;1.13;;;1.03;;
6665;SDS011;3369;49.906;8.598;2023-03-23T17:41:07;1.20;;;1.10;;
6665;SDS011;3369;49.906;8.598;2023-03-23T17:43:32;1.40;;;1.30;;
6665;SDS011;3369;49.906;8.598;2023-03-23T17:46:00;1.43;;;1.10;;
6665;SDS011;3369;49.906;8.598;2023-03-23T17:48:26;1.40;;;1.30;;
6665;SDS011;3369;49.906;8.598;2023-03-23T17:50:53;1.67;;;1.10;;
6665;SDS011;3369;49.906;8.598;2023-03-23T17:53:22;1.20;;;1.10;;
6665;SDS011;3369;49.906;8.598;2023-03-23T17:55:49;1.10;;;1.10;;
6665;SDS011;3369;49.906;8.598;2023-03-23T17:58:16;1.83;;;1.33;;
6665;SDS011;3369;49.906;8.598;2023-03-23T18:00:42;1.50;;;1.40;;
6665;SDS011;3369;49.906;8.598;2023-03-23T18:03:08;1.50;;;1.33;;
6665;SDS011;3369;49.906;8.598;2023-03-23T18:05:34;1.40;;;1.30;;
6665;SDS011;3369;49.906;8.598;2023-03-23T18:08:02;1.37;;;1.20;;
6665;SDS011;3369;49.906;8.598;2023-03-23T18:10:28;1.73;;;1.30;;
6665;SDS011;3369;49.906;8.598;2023-03-23T18:12:54;1.53;;;1.43;;
6665;SDS011;3369;49.906;8.598;2023-03-23T18:15:20;1.60;;;1.33;;
6665;SDS011;3369;49.906;8.598;2023-03-23T18:17:46;2.37;;;1.53;;
6665;SDS011;3369;49.906;8.598;2023-03-23T18:20:14;1.83;;;1.53;;
6665;SDS011;3369;49.906;8.598;2023-03-23T18:22:41;2.07;;;1.33;;